Time;durP1;ratioP1;P1;durP2;ratioP2;P2;SDS_P1;SDS_P2;PMS_P1;PMS_P2;Temp;Humidity;BMP_temperature;BMP_pressure;BME280_temperature;BME280_humidity;BME280_pressure;Samples;Min_cycle;Max_cycle;Signal;HPM_P1;HPM_P2
2022/03/18 00:00:14;;;;;;;11.35;9.07;;;;;;;9.20;68.66;101583.72;1087969;54;20057;-78
2022/03/18 00:01:18;;;;;;;13.75;9.15;;;;;;;9.20;68.96;101582.88;1087883;54;20053;-80
2022/03/18 00:02:21;;;;;;;11.32;9.05;;;;;;;9.17;68.69;101588.41;1087809;54;20030;-78
2022/03/18 00:03:25;;;;;;;11.05;9.13;;;;;;;9.13;68.55;101581.53;1087848;54;20094;-78
2022/03/18 00:04:27;;;;;;;10.23;8.73;;;;;;;9.12;68.81;101580.69;1087779;54;20054;-79
2022/03/18 00:05:32;;;;;;;11.45;8.57;;;;;;;9.13;68.92;101579.75;1089048;46;20019;-80
2022/03/18 00:06:34;;;;;;;11.90;9.05;;;;;;;9.15;68.65;101585.84;1088214;54;20034;-78
2022/03/18 00:07:38;;;;;;;10.32;8.98;;;;;;;9.14;68.99;101580.59;1088300;54;20081;-78
2022/03/18 00:08:40;;;;;;;10.60;8.10;;;;;;;9.20;68.73;101577.53;1088236;47;20034;-78
2022/03/18 00:09:44;;;;;;;10.73;8.02;;;;;;;9.17;68.86;101583.91;1088280;54;20026;-78
2022/03/18 00:10:49;;;;;;;10.30;8.35;;;;;;;9.27;68.68;101585.97;1088222;54;20029;-78
2022/03/18 00:11:53;;;;;;;9.43;8.00;;;;;;;9.32;68.31;101586.56;1088253;54;20034;-78
2022/03/18 00:12:54;;;;;;;10.55;8.93;;;;;;;9.29;68.53;101578.75;1090099;46;20054;-78
2022/03/18 00:14:02;;;;;;;10.48;8.27;;;;;;;9.25;68.45;101585.25;1088282;54;20041;-78
2022/03/18 00:15:07;;;;;;;11.80;9.57;;;;;;;9.15;68.46;101583.16;1088728;46;20027;-78
2022/03/18 00:16:11;;;;;;;11.00;9.15;;;;;;;9.12;68.63;101588.69;1088245;54;20026;-78
2022/03/18 00:17:13;;;;;;;12.48;8.52;;;;;;;9.02;68.82;101588.41;1088226;54;20030;-77
2022/03/18 00:18:17;;;;;;;10.85;8.55;;;;;;;9.16;69.02;101587.53;1088518;46;20030;-78
2022/03/18 00:19:18;;;;;;;11.95;8.57;;;;;;;9.17;68.81;101583.91;1088263;54;20042;-78
2022/03/18 00:20:23;;;;;;;12.57;8.68;;;;;;;9.17;68.53;101583.06;1090994;39;20664;-78
2022/03/18 00:21:25;;;;;;;11.75;9.20;;;;;;;9.10;68.64;101589.75;1089256;46;20038;-78
2022/03/18 00:22:29;;;;;;;9.85;8.45;;;;;;;9.09;68.82;101586.22;1088399;46;20031;-79
2022/03/18 00:23:31;;;;;;;11.07;8.93;;;;;;;9.13;68.85;101581.53;1093307;39;20230;-79
2022/03/18 00:24:36;;;;;;;11.07;9.10;;;;;;;9.08;68.75;101579.16;1088239;54;20035;-78
2022/03/18 00:25:40;;;;;;;10.57;9.32;;;;;;;9.06;69.03;101575.75;1088267;54;20045;-78
2022/03/18 00:26:44;;;;;;;10.15;8.23;;;;;;;9.00;69.06;101581.47;1088148;54;20037;-78
2022/03/18 00:27:49;;;;;;;10.88;8.75;;;;;;;9.00;68.94;101586.78;1088224;54;20030;-77
2022/03/18 00:28:50;;;;;;;10.75;8.63;;;;;;;8.98;69.01;101578.03;1088271;54;20038;-78
2022/03/18 00:29:56;;;;;;;12.32;9.70;;;;;;;8.96;69.12;101583.47;1088257;54;20037;-78
2022/03/18 00:30:57;;;;;;;11.00;8.45;;;;;;;8.99;68.97;101580.63;1088196;54;20061;-78
2022/03/18 00:32:02;;;;;;;11.23;9.10;;;;;;;9.04;68.87;101580.31;1088197;54;20039;-79
2022/03/18 00:33:06;;;;;;;11.00;7.80;;;;;;;9.11;68.74;101584.31;1088390;46;20026;-78
2022/03/18 00:34:09;;;;;;;18.05;8.95;;;;;;;9.10;68.49;101585.25;1088275;54;20126;-78
2022/03/18 00:35:14;;;;;;;13.63;8.73;;;;;;;9.08;68.91;101587.16;1088237;54;20091;-78
2022/03/18 00:36:15;;;;;;;11.18;8.30;;;;;;;9.14;68.88;101581.44;1088238;54;20046;-78
2022/03/18 00:37:20;;;;;;;10.70;8.90;;;;;;;9.15;68.26;101579.63;1087794;54;20046;-78
2022/03/18 00:38:21;;;;;;;11.68;8.98;;;;;;;9.11;68.46;101586.13;1087980;54;20037;-78
2022/03/18 00:39:26;;;;;;;11.55;8.57;;;;;;;9.02;68.62;101596.41;1088278;54;20074;-79
2022/03/18 00:40:27;;;;;;;9.52;8.52;;;;;;;9.02;69.08;101590.22;1088970;46;20034;-79
2022/03/18 00:41:31;;;;;;;12.48;9.57;;;;;;;9.05;68.55;101590.88;1088169;54;20030;-79
2022/03/18 00:42:36;;;;;;;12.02;8.13;;;;;;;9.05;68.80;101590.88;1088241;54;20038;-78
2022/03/18 00:43:40;;;;;;;10.85;8.68;;;;;;;9.09;68.50;101593.38;1088189;54;20034;-77
2022/03/18 00:44:41;;;;;;;10.07;8.15;;;;;;;9.04;68.57;101594.50;1089346;46;20041;-78
2022/03/18 00:45:45;;;;;;;10.57;8.15;;;;;;;9.07;68.51;101593.44;1088257;54;20110;-78
2022/03/18 00:46:47;;;;;;;10.77;8.20;;;;;;;9.10;68.80;101600.41;1088165;54;20038;-78
2022/03/18 00:52:58;;;;;;;8.18;6.88;;;;;;;9.15;68.67;101591.19;1088230;54;20087;-78
2022/03/18 00:53:59;;;;;;;11.43;8.45;;;;;;;9.16;68.61;101595.53;1089638;46;20034;-79
2022/03/18 00:55:03;;;;;;;11.32;9.25;;;;;;;9.08;68.35;101589.81;1087906;54;20095;-79
2022/03/18 00:56:07;;;;;;;9.93;8.05;;;;;;;9.11;68.54;101594.97;1088258;54;20296;-79
2022/03/18 00:57:10;;;;;;;9.30;7.70;;;;;;;9.11;68.30;101594.97;1088151;54;20027;-79
2022/03/18 00:58:16;;;;;;;9.52;8.15;;;;;;;9.09;68.49;101594.22;1090246;46;20781;-79
2022/03/18 00:59:18;;;;;;;10.05;8.07;;;;;;;8.99;68.73;101595.75;1088241;54;20033;-78
2022/03/18 01:00:22;;;;;;;9.93;8.40;;;;;;;9.00;68.79;101597.47;1089435;46;20041;-78
2022/03/18 01:01:26;;;;;;;12.15;8.63;;;;;;;9.01;68.73;101594.72;1089984;46;20023;-78
2022/03/18 01:02:31;;;;;;;9.13;7.10;;;;;;;9.08;68.64;101599.66;1088175;54;20025;-80
2022/03/18 01:03:32;;;;;;;10.68;8.52;;;;;;;9.10;68.32;101598.59;1089084;46;20031;-84
2022/03/18 01:04:36;;;;;;;10.55;8.48;;;;;;;9.08;68.43;101600.50;1088322;54;20046;-84
2022/03/18 01:05:38;;;;;;;10.05;8.07;;;;;;;9.09;68.53;101599.53;1088394;54;20042;-85
2022/03/18 01:06:42;;;;;;;8.82;6.95;;;;;;;9.11;68.68;101592.31;1088346;54;20034;-83
2022/03/18 01:07:44;;;;;;;10.98;8.18;;;;;;;9.12;68.50;101602.03;1088360;54;20034;-85
2022/03/18 01:08:48;;;;;;;12.50;8.57;;;;;;;9.15;68.44;101598.31;1088343;54;20272;-86
2022/03/18 01:09:49;;;;;;;9.13;7.82;;;;;;;9.15;68.12;101591.19;1088370;54;20038;-85
2022/03/18 01:10:54;;;;;;;10.05;7.85;;;;;;;9.17;68.11;101599.91;1088206;54;20030;-84
2022/03/18 01:11:55;;;;;;;11.40;8.38;;;;;;;9.15;68.31;101600.97;1089751;46;20049;-83
2022/03/18 01:12:59;;;;;;;10.00;7.78;;;;;;;9.09;68.17;101599.53;1088400;54;20026;-86
2022/03/18 01:14:03;;;;;;;9.90;7.72;;;;;;;9.15;68.12;101593.84;1088344;54;20014;-84
2022/03/18 01:15:09;;;;;;;9.15;7.50;;;;;;;9.07;68.54;101598.78;1088323;54;20030;-84
2022/03/18 01:16:10;;;;;;;10.75;8.15;;;;;;;9.07;68.25;101603.28;1089758;46;20026;-84
2022/03/18 01:17:15;;;;;;;9.85;7.93;;;;;;;9.03;68.53;101605.28;1088208;54;20041;-84
2022/03/18 01:18:16;;;;;;;12.30;8.00;;;;;;;9.07;68.46;101593.44;1088204;54;20058;-81
2022/03/18 01:19:21;;;;;;;11.13;8.45;;;;;;;8.94;68.51;101603.19;1088196;54;20038;-84
2022/03/18 01:20:22;;;;;;;11.48;8.40;;;;;;;8.90;68.42;101603.38;1088251;54;20041;-84
2022/03/18 01:21:26;;;;;;;10.48;8.13;;;;;;;8.87;68.86;101608.03;1088230;54;20030;-82
2022/03/18 01:22:28;;;;;;;10.00;7.75;;;;;;;8.88;68.62;101607.09;1088199;54;20042;-82
2022/03/18 01:23:32;;;;;;;10.32;7.72;;;;;;;8.91;68.50;101609.59;1088235;54;20041;-83
2022/03/18 01:24:33;;;;;;;10.40;8.13;;;;;;;8.98;68.37;101600.25;1088200;54;20034;-85
2022/03/18 01:25:38;;;;;;;10.25;7.32;;;;;;;9.04;68.42;101602.50;1088192;54;20022;-83
2022/03/18 01:26:42;;;;;;;10.90;7.75;;;;;;;8.99;68.28;101606.41;1088416;46;20022;-83
2022/03/18 01:27:44;;;;;;;10.00;7.78;;;;;;;8.99;68.59;101601.09;1087745;54;20511;-84
2022/03/18 01:28:48;;;;;;;9.70;7.43;;;;;;;8.97;68.32;101603.84;1088133;54;20037;-83
2022/03/18 01:29:55;;;;;;;10.43;8.52;;;;;;;8.93;68.50;101596.97;1088174;54;20070;-81
2022/03/18 01:30:56;;;;;;;11.18;8.35;;;;;;;8.90;68.53;101602.53;1090491;46;20043;-83
2022/03/18 01:32:01;;;;;;;10.38;7.70;;;;;;;8.92;68.50;101592.63;1088109;54;20053;-81
2022/03/18 01:33:02;;;;;;;11.38;8.02;;;;;;;8.83;68.96;101596.72;1088055;54;20050;-82
2022/03/18 01:34:06;;;;;;;9.82;7.65;;;;;;;8.84;68.64;101601.09;1088146;54;20041;-84
2022/03/18 01:35:10;;;;;;;10.15;8.20;;;;;;;8.78;68.72;101609.50;1088211;54;20035;-83
2022/03/18 01:36:14;;;;;;;12.55;8.65;;;;;;;8.74;68.92;101599.97;1088139;54;20046;-81
2022/03/18 01:37:16;;;;;;;10.85;7.50;;;;;;;8.71;69.14;101597.47;1088116;54;20085;-82
2022/03/18 01:38:20;;;;;;;10.55;7.78;;;;;;;8.69;68.92;101599.41;1088196;54;20019;-83
2022/03/18 01:39:22;;;;;;;11.20;7.55;;;;;;;8.71;68.62;101602.81;1088221;54;20019;-82
2022/03/18 01:40:27;;;;;;;10.95;8.00;;;;;;;8.71;68.99;101601.00;1088165;54;20037;-82
2022/03/18 01:41:28;;;;;;;11.25;8.30;;;;;;;8.69;69.07;101599.41;1088098;54;20034;-83
2022/03/18 01:42:32;;;;;;;10.45;7.95;;;;;;;8.75;68.81;101604.34;1088153;54;20019;-82
2022/03/18 01:43:38;;;;;;;11.60;8.43;;;;;;;8.68;68.99;101608.34;1087911;54;20061;-82
2022/03/18 01:44:43;;;;;;;10.90;8.70;;;;;;;8.67;69.12;101598.63;1087769;54;20061;-82
2022/03/18 01:45:49;;;;;;;10.05;7.75;;;;;;;8.68;68.99;101600.34;1088206;54;20045;-83
2022/03/18 01:46:53;;;;;;;9.85;8.05;;;;;;;8.64;69.41;101599.69;1088100;54;20034;-84
2022/03/18 01:47:54;;;;;;;10.85;7.88;;;;;;;8.63;69.38;101605.97;1088112;54;20038;-82
2022/03/18 01:48:59;;;;;;;10.00;7.43;;;;;;;8.66;68.98;101604.91;1088114;54;20031;-84
2022/03/18 01:50:01;;;;;;;9.52;7.70;;;;;;;8.71;69.14;101605.47;1088108;54;20062;-81
2022/03/18 01:51:06;;;;;;;12.70;7.38;;;;;;;8.74;68.76;101600.78;1088091;54;20034;-83
2022/03/18 01:52:10;;;;;;;10.20;8.07;;;;;;;8.74;68.76;101607.94;1089023;39;20824;-82
2022/03/18 01:53:14;;;;;;;11.40;7.95;;;;;;;8.73;68.48;101600.91;1088130;54;20042;-85
2022/03/18 01:55:36;;;;;;;9.27;7.45;;;;;;;8.59;68.58;101615.09;1088127;54;20034;-81
2022/03/18 01:56:38;;;;;;;8.90;6.63;;;;;;;8.58;68.54;101603.56;1088109;54;20039;-80
2022/03/18 01:57:43;;;;;;;9.25;6.55;;;;;;;8.54;68.79;101610.03;1088130;54;20041;-84
2022/03/18 01:58:44;;;;;;;11.18;7.45;;;;;;;8.54;68.64;101606.53;1088026;54;20049;-80
2022/03/18 01:59:50;;;;;;;9.48;7.05;;;;;;;8.50;68.81;101604.97;1088105;54;20026;-80
2022/03/18 02:00:54;;;;;;;9.18;6.93;;;;;;;8.53;68.70;101605.66;1087988;47;20046;-84
2022/03/18 02:01:58;;;;;;;10.05;6.95;;;;;;;8.49;68.56;101608.59;1087812;54;20026;-81
2022/03/18 02:03:00;;;;;;;9.60;6.90;;;;;;;8.54;68.32;101603.84;1088102;54;20047;-83
2022/03/18 02:04:04;;;;;;;8.73;6.78;;;;;;;8.56;68.10;101607.25;1088070;54;20042;-82
2022/03/18 02:05:06;;;;;;;8.50;6.88;;;;;;;8.58;67.86;101605.38;1088099;54;20038;-82
2022/03/18 02:06:10;;;;;;;9.07;6.60;;;;;;;8.59;68.03;101609.75;1089635;46;20038;-81
2022/03/18 02:07:13;;;;;;;9.60;7.22;;;;;;;8.54;67.80;101602.03;1088052;54;20035;-81
2022/03/18 02:08:20;;;;;;;8.68;5.88;;;;;;;8.46;68.02;101609.59;1088130;54;20030;-82
2022/03/18 02:09:21;;;;;;;9.60;6.70;;;;;;;8.42;68.16;101608.94;1088169;54;20045;-81
2022/03/18 02:10:26;;;;;;;9.45;6.47;;;;;;;8.40;68.28;101610.84;1088033;54;20057;-83
2022/03/18 02:11:27;;;;;;;9.00;6.28;;;;;;;8.39;68.29;101608.28;1088185;54;20046;-82
2022/03/18 02:12:31;;;;;;;8.48;6.00;;;;;;;8.41;68.68;101609.88;1088081;54;20090;-82
2022/03/18 02:13:33;;;;;;;10.20;7.22;;;;;;;8.37;68.71;101620.81;1088126;54;20034;-83
2022/03/18 02:14:40;;;;;;;11.50;6.80;;;;;;;8.42;68.86;101619.59;1088200;54;20030;-82
2022/03/18 02:15:41;;;;;;;7.88;6.32;;;;;;;8.37;68.81;101620.81;1088112;54;20047;-83
2022/03/18 02:16:48;;;;;;;8.95;6.60;;;;;;;8.39;68.80;101613.59;1087925;54;20037;-81
2022/03/18 02:17:50;;;;;;;8.55;6.32;;;;;;;8.40;68.41;101618.84;1087778;54;20057;-82
2022/03/18 02:18:54;;;;;;;9.68;6.25;;;;;;;8.38;68.72;101612.72;1088011;54;20034;-83
2022/03/18 02:19:56;;;;;;;10.20;6.40;;;;;;;8.48;68.38;101617.53;1088129;54;20023;-82
2022/03/18 02:21:00;;;;;;;8.52;6.28;;;;;;;8.36;68.62;101614.63;1088027;54;20038;-83
2022/03/18 02:22:05;;;;;;;8.68;5.90;;;;;;;8.45;68.51;101620.38;1088076;54;20057;-81
2022/03/18 02:23:12;;;;;;;8.57;6.35;;;;;;;8.35;68.55;101618.25;1089033;39;20603;-82
2022/03/18 02:24:14;;;;;;;8.70;6.20;;;;;;;8.40;68.80;101620.66;1087950;54;20046;-81
2022/03/18 02:25:18;;;;;;;8.55;6.07;;;;;;;8.37;68.53;101615.50;1088074;54;20030;-83
2022/03/18 02:26:20;;;;;;;9.75;6.07;;;;;;;8.35;68.55;101620.06;1088062;54;20038;-83
2022/03/18 02:27:24;;;;;;;8.15;6.22;;;;;;;8.41;68.53;101617.00;1088096;54;20037;-82
2022/03/18 02:28:26;;;;;;;8.38;5.93;;;;;;;8.37;68.44;101616.34;1088048;54;20050;-81
2022/03/18 02:29:31;;;;;;;11.05;6.47;;;;;;;8.38;68.64;101614.56;1088104;54;20094;-82
2022/03/18 02:30:34;;;;;;;10.05;6.10;;;;;;;8.34;68.83;101615.66;1088046;54;20567;-84
2022/03/18 02:31:38;;;;;;;8.52;6.20;;;;;;;8.35;68.56;101617.38;1088123;54;20057;-83
2022/03/18 02:32:40;;;;;;;9.35;6.25;;;;;;;8.32;68.67;101612.22;1088086;54;20038;-81
2022/03/18 02:33:44;;;;;;;10.52;6.60;;;;;;;8.34;68.63;101615.66;1087857;54;20031;-83
2022/03/18 02:34:46;;;;;;;10.32;5.90;;;;;;;8.42;68.33;101624.94;1087764;54;20034;-81
2022/03/18 02:35:54;;;;;;;9.23;6.40;;;;;;;8.32;68.41;101620.22;1088129;54;20094;-80
2022/03/18 02:36:55;;;;;;;8.93;6.57;;;;;;;8.32;68.67;101622.88;1087996;54;20058;-83
2022/03/18 02:38:00;;;;;;;7.93;5.90;;;;;;;8.31;68.86;101623.88;1088205;54;20026;-82
2022/03/18 02:39:05;;;;;;;11.98;6.78;;;;;;;8.42;68.14;101629.38;1088029;54;20034;-82
2022/03/18 02:40:11;;;;;;;9.13;6.30;;;;;;;8.30;68.63;101623.00;1088065;54;20031;-79
2022/03/18 02:41:13;;;;;;;9.90;6.78;;;;;;;8.27;68.72;101621.38;1088206;54;20022;-81
2022/03/18 02:42:19;;;;;;;10.10;6.60;;;;;;;8.39;68.62;101619.78;1088139;54;20098;-80
2022/03/18 02:43:23;;;;;;;10.10;6.88;;;;;;;8.34;68.82;101629.00;1088172;54;20045;-82
2022/03/18 02:44:25;;;;;;;9.38;6.43;;;;;;;8.31;68.75;101621.19;1088118;54;20034;-81
2022/03/18 02:45:31;;;;;;;10.07;6.43;;;;;;;8.31;68.92;101626.53;1088170;54;20042;-81
2022/03/18 02:46:32;;;;;;;10.80;7.10;;;;;;;8.25;68.90;101633.94;1088136;54;20042;-82
2022/03/18 02:47:37;;;;;;;9.27;6.50;;;;;;;8.25;68.99;101622.41;1088053;54;20042;-83
2022/03/18 02:48:38;;;;;;;8.52;6.00;;;;;;;8.21;68.85;101627.06;1092637;39;20597;-83
2022/03/18 02:49:42;;;;;;;9.68;6.43;;;;;;;8.22;69.08;101631.44;1088080;54;20034;-81
2022/03/18 02:50:44;;;;;;;8.73;6.32;;;;;;;8.28;68.94;101636.41;1088766;46;20077;-82
2022/03/18 02:51:48;;;;;;;8.68;6.50;;;;;;;8.26;68.77;101635.63;1087767;54;20019;-80
2022/03/18 02:52:49;;;;;;;9.32;6.43;;;;;;;8.28;68.99;101639.09;1088156;54;20014;-82
2022/03/18 02:53:54;;;;;;;9.63;6.47;;;;;;;8.34;68.80;101631.66;1090719;39;20499;-81
2022/03/18 02:54:58;;;;;;;8.60;6.47;;;;;;;8.34;68.31;101635.19;1089142;47;20027;-81
2022/03/18 02:56:04;;;;;;;9.43;6.10;;;;;;;8.32;68.69;101630.88;1088526;47;20019;-80
2022/03/18 02:57:09;;;;;;;9.05;6.47;;;;;;;8.30;68.46;101636.31;1088036;54;20706;-82
2022/03/18 02:58:10;;;;;;;9.48;6.75;;;;;;;8.25;68.79;101628.59;1088098;54;20049;-81
2022/03/18 02:59:15;;;;;;;9.13;6.40;;;;;;;8.22;68.88;101636.75;1088032;54;20042;-81
2022/03/18 03:00:16;;;;;;;9.07;6.50;;;;;;;8.30;68.81;101635.47;1087982;54;20030;-80
2022/03/18 03:01:21;;;;;;;8.93;6.78;;;;;;;8.24;68.91;101634.88;1087993;54;20085;-82
2022/03/18 03:02:22;;;;;;;9.27;6.30;;;;;;;8.23;68.94;101634.97;1088020;54;20046;-80
2022/03/18 03:03:26;;;;;;;12.23;6.43;;;;;;;8.23;69.16;101633.16;1087971;54;20026;-81
2022/03/18 03:04:28;;;;;;;11.02;6.65;;;;;;;8.22;68.90;101627.91;1087870;54;20061;-82
2022/03/18 03:08:06;;;;;;;9.82;6.95;;;;;;;8.25;68.68;101641.91;1087629;54;20050;-81
2022/03/18 03:09:08;;;;;;;9.50;6.70;;;;;;;8.18;69.06;101643.22;1088535;47;20062;-83
2022/03/18 03:10:16;;;;;;;8.73;6.60;;;;;;;8.18;69.25;101647.69;1088048;54;20031;-83
2022/03/18 03:11:18;;;;;;;12.57;7.90;;;;;;;8.16;69.25;101647.78;1088089;54;20026;-79
2022/03/18 03:12:22;;;;;;;8.95;6.82;;;;;;;8.26;68.90;101650.78;1087934;54;20057;-82
2022/03/18 03:13:24;;;;;;;8.95;6.40;;;;;;;8.26;68.75;101648.97;1088364;54;20054;-83
2022/03/18 03:14:28;;;;;;;8.85;6.65;;;;;;;8.28;68.98;101649.75;1088369;54;20030;-83
2022/03/18 03:15:30;;;;;;;8.95;6.75;;;;;;;8.22;69.21;101655.41;1088353;54;20033;-82
2022/03/18 03:16:34;;;;;;;8.00;6.13;;;;;;;8.22;69.28;101658.06;1088451;54;20042;-82
2022/03/18 03:17:35;;;;;;;10.55;6.70;;;;;;;8.22;69.02;101662.56;1088374;54;20057;-81
2022/03/18 03:18:39;;;;;;;11.05;6.60;;;;;;;8.25;69.11;101665.91;1088422;54;20046;-80
2022/03/18 03:19:41;;;;;;;11.10;6.63;;;;;;;8.20;69.09;101665.31;1088373;54;20034;-80
2022/03/18 03:21:50;;;;;;;9.77;6.82;;;;;;;8.21;69.07;101667.03;1086421;54;20063;-79
2022/03/18 03:22:52;;;;;;;10.95;6.80;;;;;;;8.25;68.71;101665.06;1086380;54;20039;-78
2022/03/18 03:23:56;;;;;;;10.38;6.78;;;;;;;8.19;69.33;101671.59;1085993;54;20042;-79
2022/03/18 03:24:57;;;;;;;9.50;6.60;;;;;;;8.17;69.16;101670.81;1086615;46;20042;-78
2022/03/18 03:26:04;;;;;;;10.18;6.90;;;;;;;8.20;69.08;101673.31;1086440;54;20038;-80
2022/03/18 03:27:06;;;;;;;9.73;6.68;;;;;;;8.16;69.05;101677.09;1086189;54;20034;-78
2022/03/18 03:28:10;;;;;;;8.25;6.50;;;;;;;8.22;69.20;101676.72;1086519;54;20037;-79
2022/03/18 03:29:11;;;;;;;10.43;6.65;;;;;;;8.20;68.93;101670.66;1086991;54;20038;-79
2022/03/18 03:30:15;;;;;;;14.00;7.68;;;;;;;8.20;69.01;101685.75;1086693;54;20037;-79
2022/03/18 03:31:17;;;;;;;7.97;6.65;;;;;;;8.16;69.25;101686.91;1086213;54;20030;-80
2022/03/18 03:32:21;;;;;;;12.07;7.80;;;;;;;8.21;69.10;101684.81;1086570;54;20065;-78
2022/03/18 03:33:26;;;;;;;10.25;7.10;;;;;;;8.25;69.01;101681.88;1086624;54;20042;-80
2022/03/18 03:34:29;;;;;;;10.10;6.55;;;;;;;8.20;68.98;101675.97;1086565;39;20431;-79
2022/03/18 03:35:33;;;;;;;9.43;6.45;;;;;;;8.25;69.35;101676.56;1086379;54;20589;-79
2022/03/18 03:36:35;;;;;;;8.95;6.85;;;;;;;8.25;69.21;101683.69;1086487;54;20057;-78
2022/03/18 03:37:39;;;;;;;10.60;6.43;;;;;;;8.26;69.05;101682.75;1086246;54;20042;-79
2022/03/18 03:38:43;;;;;;;9.43;7.13;;;;;;;8.25;69.11;101681.03;1086261;54;20046;-79
2022/03/18 03:39:45;;;;;;;9.77;7.53;;;;;;;8.26;69.18;101683.59;1086514;54;20854;-79
2022/03/18 03:40:49;;;;;;;8.82;6.82;;;;;;;8.25;68.75;101681.03;1086609;31;20573;-80
2022/03/18 03:41:53;;;;;;;9.32;6.88;;;;;;;8.21;69.04;101685.69;1086224;54;20035;-80
2022/03/18 03:42:59;;;;;;;12.63;8.27;;;;;;;8.31;68.81;101685.16;1086457;54;20059;-79
2022/03/18 03:44:01;;;;;;;9.75;6.97;;;;;;;8.22;68.87;101683.88;1086738;54;20054;-79
2022/03/18 03:45:05;;;;;;;9.68;7.25;;;;;;;8.22;68.92;101682.06;1087344;46;20090;-79
2022/03/18 03:46:08;;;;;;;11.02;6.75;;;;;;;8.20;69.07;101691.97;1087545;46;20023;-79
2022/03/18 03:47:12;;;;;;;8.50;6.80;;;;;;;8.19;69.42;101692.91;1086812;54;20038;-79
2022/03/18 03:48:14;;;;;;;9.07;6.28;;;;;;;8.21;69.07;101693.69;1086574;54;20050;-79
2022/03/18 03:49:18;;;;;;;9.70;6.97;;;;;;;8.22;68.85;101692.72;1085821;54;20046;-79
2022/03/18 03:50:19;;;;;;;10.60;7.32;;;;;;;8.21;69.18;101700.81;1085450;54;20053;-78
2022/03/18 03:51:24;;;;;;;9.00;6.97;;;;;;;8.23;69.04;101683.78;1085833;54;20586;-79
2022/03/18 03:52:25;;;;;;;9.65;6.78;;;;;;;8.18;69.21;101685.84;1085781;54;20065;-79
2022/03/18 03:53:29;;;;;;;9.23;7.05;;;;;;;8.16;69.24;101690.41;1085923;54;20034;-79
2022/03/18 03:54:31;;;;;;;10.70;7.65;;;;;;;8.17;69.22;101689.47;1086214;54;20107;-78
2022/03/18 03:55:39;;;;;;;10.45;6.78;;;;;;;8.23;69.12;101689.09;1086689;46;20049;-80
2022/03/18 03:56:40;;;;;;;9.63;6.53;;;;;;;8.23;69.12;101696.25;1087117;39;20468;-79
2022/03/18 03:57:47;;;;;;;10.43;7.22;;;;;;;8.22;69.08;101698.03;1085599;54;20038;-79
2022/03/18 03:58:49;;;;;;;8.70;6.85;;;;;;;8.22;68.83;101687.38;1085324;54;20037;-78
2022/03/18 03:59:53;;;;;;;9.65;7.28;;;;;;;8.16;69.04;101700.22;1086257;54;20026;-79
2022/03/18 04:00:55;;;;;;;12.93;7.38;;;;;;;8.13;68.90;101701.22;1086157;54;20034;-79
2022/03/18 04:01:59;;;;;;;12.48;7.40;;;;;;;8.08;69.31;101696.16;1086991;39;20467;-80
2022/03/18 04:03:01;;;;;;;9.35;7.20;;;;;;;8.10;69.17;101702.28;1086597;54;20031;-79
2022/03/18 04:04:05;;;;;;;10.75;7.72;;;;;;;8.10;69.23;101698.78;1086559;54;20045;-79
2022/03/18 04:05:08;;;;;;;9.07;6.97;;;;;;;8.11;69.27;101700.50;1085840;54;20046;-78
2022/03/18 04:06:13;;;;;;;12.85;9.05;;;;;;;8.07;69.09;101704.25;1086131;54;20046;-79
2022/03/18 04:07:15;;;;;;;12.13;8.05;;;;;;;8.07;69.52;101705.13;1086536;54;20042;-80
2022/03/18 04:08:19;;;;;;;9.48;8.02;;;;;;;8.09;69.14;101702.38;1086530;54;20069;-79
2022/03/18 04:09:21;;;;;;;9.70;7.80;;;;;;;8.11;69.13;101708.47;1086160;54;20030;-80
2022/03/18 04:10:25;;;;;;;14.73;8.07;;;;;;;8.12;68.90;101705.72;1086276;54;20034;-79
2022/03/18 04:11:27;;;;;;;12.70;8.27;;;;;;;8.06;69.22;101705.22;1086112;54;20133;-80
2022/03/18 04:12:32;;;;;;;13.35;8.07;;;;;;;8.03;69.27;101716.06;1086196;46;20057;-79
2022/03/18 04:13:36;;;;;;;9.82;7.13;;;;;;;7.97;69.78;101715.44;1085807;54;20048;-79
2022/03/18 04:14:41;;;;;;;15.73;8.25;;;;;;;8.03;69.55;101721.38;1086125;54;20046;-79
2022/03/18 04:15:42;;;;;;;9.57;7.95;;;;;;;8.06;69.48;101721.19;1086328;54;20061;-81
2022/03/18 04:16:47;;;;;;;10.82;7.57;;;;;;;8.00;69.19;101718.88;1086546;54;20050;-79
2022/03/18 04:17:49;;;;;;;12.70;8.00;;;;;;;8.05;69.39;101725.66;1086805;54;20073;-79
2022/03/18 04:18:53;;;;;;;11.25;8.35;;;;;;;8.16;69.05;101721.53;1086670;54;20568;-81
2022/03/18 04:19:55;;;;;;;10.55;7.20;;;;;;;8.03;69.46;101719.56;1086392;54;20046;-78
2022/03/18 04:20:59;;;;;;;11.05;8.52;;;;;;;7.99;69.42;101726.00;1086946;46;20042;-80
2022/03/18 04:22:01;;;;;;;9.38;7.85;;;;;;;8.01;69.62;101732.09;1086260;54;20046;-79
2022/03/18 04:23:05;;;;;;;10.63;7.97;;;;;;;8.03;69.41;101732.88;1086456;54;20042;-80
2022/03/18 04:24:08;;;;;;;11.45;7.75;;;;;;;7.95;69.66;101727.97;1086028;54;20034;-80
2022/03/18 04:25:13;;;;;;;10.75;8.05;;;;;;;8.04;69.55;101737.25;1087601;31;20559;-78
2022/03/18 04:26:16;;;;;;;11.40;7.57;;;;;;;8.03;69.65;101740.03;1086545;54;20038;-79
2022/03/18 04:27:21;;;;;;;12.15;7.97;;;;;;;7.99;69.92;101738.47;1088017;46;20027;-79
2022/03/18 04:28:27;;;;;;;11.50;8.10;;;;;;;8.00;69.90;101741.03;1086727;54;20077;-79
2022/03/18 04:29:31;;;;;;;13.38;7.63;;;;;;;8.02;69.55;101740.97;1086886;54;20038;-79
2022/03/18 04:30:35;;;;;;;11.07;7.43;;;;;;;8.13;69.13;101743.84;1086369;54;20053;-79
2022/03/18 04:31:37;;;;;;;13.57;8.38;;;;;;;8.09;69.09;101735.19;1085856;54;20050;-79
2022/03/18 04:32:42;;;;;;;10.77;7.68;;;;;;;8.08;69.35;101743.28;1086647;54;20053;-81
2022/03/18 04:33:43;;;;;;;10.18;7.53;;;;;;;8.10;69.16;101739.56;1086644;54;20045;-80
2022/03/18 04:34:47;;;;;;;15.18;8.68;;;;;;;8.00;69.41;101737.53;1086247;54;20034;-79
2022/03/18 04:35:49;;;;;;;12.02;8.23;;;;;;;7.97;69.65;101744.72;1086832;54;20042;-78
2022/03/18 04:36:53;;;;;;;12.63;9.02;;;;;;;7.98;69.70;101745.63;1086772;54;20027;-79
2022/03/18 04:37:54;;;;;;;11.27;8.75;;;;;;;8.02;69.72;101746.28;1086540;54;20031;-79
2022/03/18 04:38:59;;;;;;;11.02;8.30;;;;;;;8.03;69.69;101750.69;1086618;54;20863;-78
2022/03/18 04:40:00;;;;;;;9.95;7.78;;;;;;;8.02;69.66;101747.13;1086639;54;20026;-78
2022/03/18 04:41:04;;;;;;;9.50;7.55;;;;;;;7.99;69.92;101749.97;1086593;54;20061;-79
2022/03/18 04:42:07;;;;;;;13.13;8.68;;;;;;;8.01;69.72;101752.56;1086504;54;20035;-79
2022/03/18 04:43:11;;;;;;;9.13;7.32;;;;;;;8.02;69.56;101738.31;1086878;54;20033;-79
2022/03/18 04:44:13;;;;;;;10.40;7.97;;;;;;;7.99;69.58;101743.78;1086038;54;20047;-78
2022/03/18 04:45:19;;;;;;;11.23;8.63;;;;;;;7.96;69.71;101745.69;1086255;54;20045;-79
2022/03/18 04:46:21;;;;;;;10.45;7.97;;;;;;;7.96;69.39;101752.81;1086208;54;20038;-79
2022/03/18 04:47:29;;;;;;;11.77;8.45;;;;;;;7.93;69.61;101745.88;1086123;54;20040;-80
2022/03/18 04:48:33;;;;;;;12.65;7.95;;;;;;;7.94;69.68;101750.22;1087735;54;20094;-80
2022/03/18 04:49:34;;;;;;;12.07;8.90;;;;;;;7.92;69.83;101748.59;1087538;54;20026;-79
2022/03/18 04:50:38;;;;;;;13.43;8.77;;;;;;;8.00;69.73;101756.16;1087374;54;20045;-79
2022/03/18 04:51:40;;;;;;;12.40;9.05;;;;;;;7.94;69.75;101754.69;1089606;46;20046;-80
2022/03/18 04:52:44;;;;;;;10.45;7.55;;;;;;;7.92;69.77;101751.25;1087553;46;20027;-82
2022/03/18 04:53:46;;;;;;;10.13;9.00;;;;;;;7.99;69.69;101760.63;1087838;54;20035;-80
2022/03/18 04:54:52;;;;;;;12.88;8.60;;;;;;;8.00;69.59;101762.34;1087924;54;20034;-81
2022/03/18 04:55:53;;;;;;;12.30;8.73;;;;;;;7.90;69.88;101759.34;1087938;54;20035;-78
2022/03/18 04:58:14;;;;;;;11.40;8.82;;;;;;;7.88;70.09;101763.06;1086147;54;20045;-79
2022/03/18 04:59:15;;;;;;;13.73;8.88;;;;;;;7.89;69.97;101762.94;1086361;54;20034;-78
2022/03/18 05:00:24;;;;;;;12.98;8.73;;;;;;;7.86;69.93;101759.59;1086259;54;20030;-78
2022/03/18 05:01:26;;;;;;;13.07;9.27;;;;;;;7.86;70.27;101765.78;1086353;54;20044;-79
2022/03/18 05:02:31;;;;;;;12.75;8.90;;;;;;;7.81;70.18;101763.38;1085835;54;20035;-80
2022/03/18 05:03:34;;;;;;;12.80;9.30;;;;;;;7.80;70.29;101760.81;1086035;54;20034;-79
2022/03/18 05:04:38;;;;;;;12.05;8.48;;;;;;;7.83;70.06;101760.66;1085381;54;20038;-79
2022/03/18 05:05:42;;;;;;;10.93;9.07;;;;;;;7.84;70.17;101767.66;1085345;54;20038;-79
2022/03/18 05:06:44;;;;;;;11.77;9.32;;;;;;;7.80;70.19;101755.47;1084835;54;20042;-80
2022/03/18 05:07:50;;;;;;;16.33;10.07;;;;;;;7.84;70.14;101767.66;1084658;54;20077;-79